createdAt,value
2022-10-17T00:03:35.453Z,8.45
2022-10-17T00:06:06.904Z,8.50
2022-10-17T00:08:34.135Z,8.55
2022-10-17T00:11:04.739Z,8.70
2022-10-17T00:13:35.717Z,7.75
2022-10-17T00:16:03.075Z,8.50
2022-10-17T00:18:30.447Z,8.85
2022-10-17T00:20:57.815Z,8.43
2022-10-17T00:23:27.482Z,8.93
2022-10-17T00:26:02.501Z,8.93
2022-10-17T00:28:30.022Z,9.73
2022-10-17T00:30:58.475Z,9.02
2022-10-17T00:33:26.447Z,9.10
2022-10-17T00:36:03.404Z,9.88
2022-10-17T00:38:35.436Z,10.30
2022-10-17T00:41:03.316Z,10.52
2022-10-17T00:43:31.588Z,10.77
2022-10-17T00:45:59.081Z,10.93
2022-10-17T00:48:26.803Z,10.65
2022-10-17T00:50:55.142Z,10.07
2022-10-17T00:53:26.131Z,10.27
2022-10-17T00:55:55.079Z,9.20
2022-10-17T00:58:23.140Z,9.80
2022-10-17T01:00:50.660Z,9.52
2022-10-17T01:03:18.403Z,9.45
2022-10-17T01:05:47.183Z,9.35
2022-10-17T01:08:15.076Z,9.57
2022-10-17T01:11:00.723Z,9.85
2022-10-17T01:13:37.849Z,9.70
2022-10-17T01:16:25.722Z,9.52
2022-10-17T01:19:04.086Z,10.68
2022-10-17T01:21:34.340Z,10.05
2022-10-17T01:24:04.874Z,9.70
2022-10-17T01:26:45.830Z,9.77
2022-10-17T01:29:24.034Z,10.75
2022-10-17T01:32:02.999Z,10.55
2022-10-17T01:34:48.543Z,9.95
2022-10-17T01:37:20.197Z,11.38
2022-10-17T01:39:48.297Z,10.75
2022-10-17T01:42:36.473Z,11.07
2022-10-17T01:45:24.515Z,11.40
2022-10-17T01:47:53.783Z,11.88
2022-10-17T01:50:26.506Z,12.55
2022-10-17T01:52:55.936Z,12.20
2022-10-17T01:55:26.526Z,12.13
2022-10-17T01:57:58.716Z,13.00
2022-10-17T02:00:28.099Z,12.05
2022-10-17T02:03:01.162Z,12.18
2022-10-17T02:05:34.011Z,11.80
2022-10-17T02:08:01.567Z,11.75
2022-10-17T02:10:32.029Z,12.75
2022-10-17T02:15:31.990Z,11.82
2022-10-17T02:18:24.669Z,11.25
2022-10-17T02:20:55.819Z,11.63
2022-10-17T02:23:33.849Z,10.48
2022-10-17T02:26:07.474Z,10.75
2022-10-17T02:28:48.578Z,10.90
2022-10-17T02:31:16.063Z,10.27
2022-10-17T02:33:56.117Z,10.50
2022-10-17T02:36:28.307Z,10.63
2022-10-17T02:38:56.437Z,11.15
2022-10-17T02:41:25.879Z,10.30
2022-10-17T02:43:57.654Z,10.48
2022-10-17T02:46:28.768Z,10.45
2022-10-17T02:49:06.092Z,9.70
2022-10-17T02:51:55.790Z,9.82
2022-10-17T02:54:27.430Z,10.07
2022-10-17T02:57:09.365Z,10.35
2022-10-17T02:59:38.310Z,10.25
2022-10-17T03:02:06.828Z,9.38
2022-10-17T03:04:35.453Z,10.77
2022-10-17T03:07:03.026Z,11.13
2022-10-17T03:09:31.704Z,10.35
2022-10-17T03:12:00.310Z,9.63
2022-10-17T03:14:27.976Z,10.23
2022-10-17T03:16:55.749Z,10.70
2022-10-17T03:19:23.948Z,11.02
2022-10-17T03:21:53.937Z,10.98
2022-10-17T03:24:26.847Z,10.95
2022-10-17T03:26:54.903Z,11.13
2022-10-17T03:29:23.138Z,10.40
2022-10-17T03:31:50.731Z,11.38
2022-10-17T03:34:19.244Z,11.60
2022-10-17T03:36:46.970Z,10.98
2022-10-17T03:39:14.941Z,11.10
2022-10-17T03:41:43.660Z,10.75
2022-10-17T03:44:11.088Z,11.73
2022-10-17T03:46:39.013Z,11.88
2022-10-17T03:49:06.991Z,12.00
2022-10-17T03:51:35.608Z,11.20
2022-10-17T03:54:08.861Z,12.23
2022-10-17T03:56:37.510Z,11.70
2022-10-17T03:59:15.453Z,11.30
2022-10-17T04:01:46.637Z,11.13
2022-10-17T04:04:14.345Z,11.25
2022-10-17T04:06:41.858Z,11.32
2022-10-17T04:09:11.929Z,11.93
2022-10-17T04:12:02.494Z,11.10
2022-10-17T04:14:31.728Z,11.15
2022-10-17T04:16:59.873Z,11.90
2022-10-17T04:19:29.000Z,12.15
2022-10-17T04:21:57.404Z,12.25
2022-10-17T04:24:25.945Z,11.95
2022-10-17T04:29:38.012Z,11.88
2022-10-17T04:32:16.014Z,11.68
2022-10-17T04:34:53.064Z,11.88
2022-10-17T04:37:23.389Z,11.90
2022-10-17T04:39:56.159Z,11.98
2022-10-17T04:44:54.267Z,11.48
2022-10-17T04:47:24.721Z,11.57
2022-10-17T04:49:54.010Z,11.60
2022-10-17T04:52:23.440Z,11.02
2022-10-17T04:54:51.039Z,11.30
2022-10-17T04:57:23.009Z,11.20
2022-10-17T04:59:58.363Z,10.27
2022-10-17T05:02:52.320Z,10.35
2022-10-17T05:05:24.836Z,10.63
2022-10-17T05:07:55.015Z,10.57
2022-10-17T05:10:26.203Z,10.25
2022-10-17T05:12:54.975Z,10.23
2022-10-17T05:15:26.257Z,10.23
2022-10-17T05:17:58.910Z,10.43
2022-10-17T05:20:29.852Z,10.77
2022-10-17T05:22:59.931Z,10.18
2022-10-17T05:25:32.145Z,10.07
2022-10-17T05:27:59.644Z,9.43
2022-10-17T05:30:27.509Z,10.20
2022-10-17T05:32:59.451Z,10.43
2022-10-17T05:35:26.874Z,9.75
2022-10-17T05:37:54.694Z,10.70
2022-10-17T05:42:54.576Z,10.52
2022-10-17T05:45:24.396Z,10.70
2022-10-17T05:47:53.211Z,9.75
2022-10-17T05:50:23.019Z,10.50
2022-10-17T05:53:04.847Z,10.68
2022-10-17T05:55:38.043Z,10.13
2022-10-17T05:58:05.633Z,9.85
2022-10-17T06:00:37.441Z,9.75
2022-10-17T06:03:06.253Z,10.75
2022-10-17T06:05:36.203Z,9.60
2022-10-17T06:08:03.745Z,10.68
2022-10-17T06:10:35.559Z,10.25
2022-10-17T06:13:03.177Z,11.07
2022-10-17T06:15:30.735Z,10.88
2022-10-17T06:18:06.155Z,11.30
2022-10-17T06:20:34.423Z,11.52
2022-10-17T06:23:02.901Z,11.45
2022-10-17T06:25:50.834Z,11.88
2022-10-17T06:28:23.647Z,10.95
2022-10-17T06:30:52.355Z,11.52
2022-10-17T06:33:24.380Z,11.32
2022-10-17T06:35:54.777Z,11.13
2022-10-17T06:38:26.668Z,12.02
2022-10-17T06:41:03.150Z,11.35
2022-10-17T06:43:30.829Z,11.82
2022-10-17T06:46:18.312Z,11.07
2022-10-17T06:48:56.145Z,10.93
2022-10-17T06:51:36.938Z,11.65
2022-10-17T06:54:07.982Z,10.75
2022-10-17T06:57:11.370Z,10.75
2022-10-17T06:59:55.476Z,10.95
2022-10-17T07:02:27.720Z,11.52
2022-10-17T07:07:25.630Z,11.25
2022-10-17T07:09:54.268Z,10.80
2022-10-17T07:12:22.021Z,11.27
2022-10-17T07:14:50.753Z,10.88
2022-10-17T07:17:19.415Z,11.15
2022-10-17T07:19:47.700Z,11.63
2022-10-17T07:22:15.637Z,10.82
2022-10-17T07:27:24.157Z,10.85
2022-10-17T07:32:40.829Z,10.40
2022-10-17T07:35:11.846Z,11.13
2022-10-17T07:37:41.077Z,10.77
2022-10-17T07:40:09.463Z,10.85
2022-10-17T07:45:07.817Z,10.90
2022-10-17T07:47:36.034Z,11.32
2022-10-17T07:50:06.590Z,11.23
2022-10-17T07:52:34.134Z,11.48
2022-10-17T07:55:02.025Z,12.00
2022-10-17T07:57:29.644Z,11.10
2022-10-17T07:59:57.140Z,12.00
2022-10-17T08:02:29.196Z,11.57
2022-10-17T08:04:57.146Z,11.77
2022-10-17T08:07:29.146Z,12.38
2022-10-17T08:09:57.523Z,11.85
2022-10-17T08:12:26.094Z,12.05
2022-10-17T08:14:54.173Z,12.15
2022-10-17T08:17:22.006Z,11.88
2022-10-17T08:19:49.636Z,12.57
2022-10-17T08:22:17.053Z,13.05
2022-10-17T08:24:46.224Z,12.63
2022-10-17T08:27:14.017Z,12.38
2022-10-17T08:29:41.514Z,12.30
2022-10-17T08:32:10.321Z,11.20
2022-10-17T08:34:38.204Z,11.80
2022-10-17T08:37:06.110Z,11.55
2022-10-17T08:39:33.642Z,11.43
2022-10-17T08:42:10.066Z,9.27
2022-10-17T08:44:58.867Z,10.07
2022-10-17T08:47:34.846Z,9.82
2022-10-17T08:50:08.924Z,8.35
2022-10-17T08:52:40.089Z,8.75
2022-10-17T08:57:49.043Z,9.35
2022-10-17T09:00:22.330Z,8.45
2022-10-17T09:03:14.151Z,9.70
2022-10-17T09:05:47.138Z,9.60
2022-10-17T09:08:47.959Z,9.40
2022-10-17T09:11:35.447Z,8.95
2022-10-17T09:14:43.111Z,10.15
2022-10-17T09:17:25.101Z,10.13
2022-10-17T09:20:15.335Z,10.13
2022-10-17T09:22:53.384Z,10.90
2022-10-17T09:25:22.336Z,9.98
2022-10-17T09:27:53.933Z,10.38
2022-10-17T09:30:43.664Z,9.77
2022-10-17T09:33:28.491Z,9.45
2022-10-17T09:36:04.760Z,10.23
2022-10-17T09:38:37.546Z,10.32
2022-10-17T09:41:25.690Z,9.38
2022-10-17T09:46:38.277Z,9.35
2022-10-17T09:49:18.212Z,10.63
2022-10-17T09:51:46.150Z,9.97
2022-10-17T09:54:22.115Z,10.63
2022-10-17T09:56:59.219Z,9.45
2022-10-17T09:59:34.793Z,9.68
2022-10-17T10:02:29.236Z,9.10
2022-10-17T10:05:07.274Z,8.65
2022-10-17T10:07:39.904Z,9.30
2022-10-17T10:10:09.046Z,9.30
2022-10-17T10:12:38.619Z,10.63
2022-10-17T10:15:25.061Z,10.57
2022-10-17T10:17:53.134Z,9.45
2022-10-17T10:20:35.051Z,9.23
2022-10-17T10:23:23.158Z,8.77
2022-10-17T10:26:03.368Z,9.40
2022-10-17T10:28:34.345Z,9.70
2022-10-17T10:31:05.799Z,9.90
2022-10-17T10:33:39.261Z,9.85
2022-10-17T10:36:10.491Z,9.45
2022-10-17T10:38:45.786Z,8.85
2022-10-17T10:41:14.975Z,9.05
2022-10-17T10:43:46.247Z,9.00
2022-10-17T10:46:28.300Z,8.77
2022-10-17T10:49:00.981Z,9.27
2022-10-17T10:51:42.704Z,9.88
2022-10-17T10:54:32.766Z,10.15
2022-10-17T10:57:03.800Z,10.50
2022-10-17T10:59:34.863Z,10.05
2022-10-17T11:02:05.621Z,11.23
2022-10-17T11:04:33.056Z,10.10
2022-10-17T11:07:20.335Z,10.27
2022-10-17T11:09:48.705Z,10.55
2022-10-17T11:12:23.188Z,9.85
2022-10-17T11:14:55.874Z,10.05
2022-10-17T11:17:26.868Z,11.27
2022-10-17T11:20:07.448Z,10.75
2022-10-17T11:22:38.660Z,11.07
2022-10-17T11:25:12.379Z,10.93
2022-10-17T11:27:40.222Z,11.70
2022-10-17T11:30:08.023Z,10.27
2022-10-17T11:32:41.929Z,11.45
2022-10-17T11:35:18.365Z,10.73
2022-10-17T11:37:49.291Z,10.40
2022-10-17T11:40:24.473Z,10.23
2022-10-17T11:42:58.426Z,10.50
2022-10-17T11:45:27.430Z,11.10
2022-10-17T11:47:59.569Z,11.50
2022-10-17T11:53:22.192Z,10.90
2022-10-17T11:55:53.094Z,12.00
2022-10-17T11:58:45.784Z,11.85
2022-10-17T12:01:32.298Z,10.85
2022-10-17T12:04:17.876Z,10.25
2022-10-17T12:07:11.170Z,10.68
2022-10-17T12:09:53.568Z,9.70
2022-10-17T12:12:25.946Z,9.95
2022-10-17T12:15:16.271Z,10.20
2022-10-17T12:17:45.654Z,9.45
2022-10-17T12:20:25.388Z,9.65
2022-10-17T12:22:55.465Z,9.98
2022-10-17T12:25:32.744Z,9.93
2022-10-17T12:28:06.294Z,10.50
2022-10-17T12:30:34.636Z,10.20
2022-10-17T12:33:23.527Z,11.52
2022-10-17T12:35:53.328Z,12.40
2022-10-17T12:38:23.526Z,11.98
2022-10-17T12:40:53.545Z,12.70
2022-10-17T12:43:29.938Z,13.00
2022-10-17T12:45:58.707Z,12.88
2022-10-17T12:48:35.720Z,12.80
2022-10-17T12:51:30.683Z,12.88
2022-10-17T12:53:58.213Z,12.98
2022-10-17T12:56:53.105Z,13.23
2022-10-17T12:59:28.726Z,12.68
2022-10-17T13:01:59.866Z,12.30
2022-10-17T13:04:27.859Z,13.25
2022-10-17T13:06:57.107Z,12.43
2022-10-17T13:09:27.662Z,13.07
2022-10-17T13:14:28.442Z,12.90
2022-10-17T13:17:03.688Z,13.07
2022-10-17T13:19:32.672Z,14.02
2022-10-17T13:22:06.400Z,13.60
2022-10-17T13:24:37.039Z,13.63
2022-10-17T13:27:06.551Z,13.40
2022-10-17T13:29:34.268Z,12.98
2022-10-17T13:32:04.085Z,13.18
2022-10-17T13:34:32.529Z,13.48
2022-10-17T13:37:01.626Z,13.20
2022-10-17T13:39:45.617Z,13.43
2022-10-17T13:42:27.365Z,13.60
2022-10-17T13:44:56.231Z,13.85
2022-10-17T13:47:29.793Z,13.88
2022-10-17T13:49:58.718Z,13.88
2022-10-17T13:52:27.858Z,14.05
2022-10-17T13:54:56.391Z,15.57
2022-10-17T13:57:26.256Z,15.15
2022-10-17T14:00:01.376Z,15.32
2022-10-17T14:02:30.970Z,15.43
2022-10-17T14:05:20.193Z,16.42
2022-10-17T14:08:14.496Z,16.98
2022-10-17T14:10:45.696Z,16.23
2022-10-17T14:13:30.850Z,16.77
2022-10-17T14:16:01.095Z,16.25
2022-10-17T14:18:35.771Z,16.92
2022-10-17T14:21:40.611Z,17.30
2022-10-17T14:23:53.517Z,16.48
2022-10-17T14:26:23.868Z,17.33
2022-10-17T14:31:21.842Z,17.08
2022-10-17T14:33:51.977Z,16.77
2022-10-17T14:36:20.298Z,17.30
2022-10-17T14:38:49.452Z,17.02
2022-10-17T14:44:16.913Z,17.20
2022-10-17T14:46:49.732Z,17.20
2022-10-17T14:49:25.176Z,17.10
2022-10-17T14:52:16.800Z,17.08
2022-10-17T14:54:46.684Z,17.75
2022-10-17T14:57:25.993Z,17.20
2022-10-17T14:59:55.728Z,16.23
2022-10-17T15:02:28.373Z,17.05
2022-10-17T15:04:56.499Z,16.55
2022-10-17T15:07:24.400Z,16.45
2022-10-17T15:09:54.285Z,16.83
2022-10-17T15:12:26.145Z,15.50
2022-10-17T15:14:54.281Z,14.80
2022-10-17T15:17:24.433Z,15.75
2022-10-17T15:19:54.529Z,15.50
2022-10-17T15:22:23.410Z,16.00
2022-10-17T15:24:51.064Z,14.38
2022-10-17T15:27:24.115Z,14.82
2022-10-17T15:29:53.284Z,15.35
2022-10-17T15:32:21.060Z,15.60
2022-10-17T15:34:49.960Z,15.30
2022-10-17T15:37:20.883Z,15.52
2022-10-17T15:39:54.529Z,15.88
2022-10-17T15:42:27.632Z,14.70
2022-10-17T15:44:55.791Z,14.50
2022-10-17T15:47:25.969Z,14.13
2022-10-17T15:49:55.362Z,14.43
2022-10-17T15:52:23.478Z,13.82
2022-10-17T15:54:51.863Z,14.32
2022-10-17T15:57:25.029Z,15.18
2022-10-17T15:59:53.207Z,15.05
2022-10-17T16:02:22.378Z,15.20
2022-10-17T16:04:50.754Z,15.77
2022-10-17T16:07:19.612Z,15.35
2022-10-17T16:09:47.342Z,15.60
2022-10-17T16:12:29.230Z,14.70
2022-10-17T16:14:57.356Z,16.17
2022-10-17T16:17:26.323Z,16.40
2022-10-17T16:19:54.361Z,16.67
2022-10-17T16:22:27.401Z,15.98
2022-10-17T16:24:58.911Z,16.02
2022-10-17T16:27:26.909Z,16.05
2022-10-17T16:29:54.345Z,16.08
2022-10-17T16:32:22.071Z,16.40
2022-10-17T16:34:49.617Z,15.07
2022-10-17T16:37:16.991Z,16.10
2022-10-17T16:39:49.268Z,16.50
2022-10-17T16:42:16.809Z,15.85
2022-10-17T16:44:44.233Z,16.65
2022-10-17T16:47:11.995Z,17.45
2022-10-17T16:49:42.898Z,17.00
2022-10-17T16:52:13.565Z,18.30
2022-10-17T16:54:41.084Z,19.38
2022-10-17T16:57:08.694Z,18.73
2022-10-17T16:59:36.279Z,20.52
2022-10-17T17:02:03.807Z,19.67
2022-10-17T17:04:31.633Z,19.45
2022-10-17T17:06:59.375Z,19.65
2022-10-17T17:09:28.249Z,19.30
2022-10-17T17:11:55.679Z,19.27
2022-10-17T17:14:24.442Z,19.88
2022-10-17T17:16:52.672Z,18.15
2022-10-17T17:19:20.853Z,18.88
2022-10-17T17:21:51.003Z,18.27
2022-10-17T17:24:23.326Z,19.13
2022-10-17T17:26:53.071Z,18.17
2022-10-17T17:29:20.983Z,18.52
2022-10-17T17:31:49.337Z,18.25
2022-10-17T17:34:18.340Z,18.25
2022-10-17T17:36:46.288Z,18.10
2022-10-17T17:39:15.992Z,18.42
2022-10-17T17:41:44.389Z,18.42
2022-10-17T17:44:16.419Z,18.45
2022-10-17T17:46:44.782Z,17.13
2022-10-17T17:49:12.865Z,17.42
2022-10-17T17:51:46.723Z,16.60
2022-10-17T17:54:14.498Z,16.85
2022-10-17T17:56:42.031Z,15.98
2022-10-17T17:59:11.596Z,16.73
2022-10-17T18:01:39.766Z,17.63
2022-10-17T18:04:08.852Z,18.38
2022-10-17T18:06:37.011Z,18.52
2022-10-17T18:09:05.055Z,19.20
2022-10-17T18:11:33.289Z,19.75
2022-10-17T18:14:05.917Z,21.67
2022-10-17T18:16:34.696Z,21.25
2022-10-17T18:19:06.721Z,21.48
2022-10-17T18:21:35.589Z,21.90
2022-10-17T18:24:04.908Z,21.83
2022-10-17T18:26:32.869Z,21.83
2022-10-17T18:29:00.792Z,21.70
2022-10-17T18:31:32.165Z,22.73
2022-10-17T18:34:00.552Z,22.23
2022-10-17T18:36:30.191Z,21.15
2022-10-17T18:38:58.446Z,22.02
2022-10-17T18:41:26.967Z,22.23
2022-10-17T18:43:55.579Z,21.55
2022-10-17T18:46:27.716Z,22.25
2022-10-17T18:48:55.673Z,22.90
2022-10-17T18:51:24.153Z,21.08
2022-10-17T18:53:53.249Z,22.30
2022-10-17T18:56:22.367Z,20.73
2022-10-17T18:58:50.397Z,21.83
2022-10-17T19:01:19.272Z,22.13
2022-10-17T19:03:48.214Z,21.38
2022-10-17T19:06:16.555Z,22.33
2022-10-17T19:08:44.334Z,23.45
2022-10-17T19:11:13.284Z,22.70
2022-10-17T19:13:42.005Z,21.40
2022-10-17T19:16:13.026Z,20.52
2022-10-17T19:18:41.255Z,21.48
2022-10-17T19:21:10.903Z,20.75
2022-10-17T19:23:39.021Z,22.05
2022-10-17T19:26:09.451Z,21.83
2022-10-17T19:31:06.231Z,21.98
2022-10-17T19:33:34.624Z,21.17
2022-10-17T19:36:03.297Z,23.25
2022-10-17T19:38:30.862Z,22.02
2022-10-17T19:43:25.757Z,21.27
2022-10-17T19:46:01.545Z,21.75
2022-10-17T19:48:32.143Z,21.33
2022-10-17T19:50:59.694Z,21.27
2022-10-17T19:53:30.442Z,21.02
2022-10-17T19:55:58.465Z,20.98
2022-10-17T19:58:27.826Z,21.42
2022-10-17T20:00:57.182Z,22.13
2022-10-17T20:03:26.161Z,22.17
2022-10-17T20:05:54.613Z,22.58
2022-10-17T20:08:27.042Z,21.23
2022-10-17T20:10:54.478Z,22.50
2022-10-17T20:13:22.148Z,22.50
2022-10-17T20:15:57.083Z,22.92
2022-10-17T20:18:25.885Z,22.70
2022-10-17T20:20:57.769Z,21.67
2022-10-17T20:23:25.463Z,22.88
2022-10-17T20:26:06.693Z,22.42
2022-10-17T20:28:48.110Z,23.38
2022-10-17T20:31:16.723Z,23.02
2022-10-17T20:33:58.291Z,24.10
2022-10-17T20:36:26.920Z,22.38
2022-10-17T20:38:55.153Z,25.23
2022-10-17T20:41:26.104Z,22.95
2022-10-17T20:43:56.768Z,23.30
2022-10-17T20:49:17.019Z,22.27
2022-10-17T20:51:45.227Z,23.08
2022-10-17T20:54:13.094Z,23.55
2022-10-17T20:56:40.833Z,21.98
2022-10-17T20:59:11.547Z,21.05
2022-10-17T21:01:39.315Z,21.88
2022-10-17T21:04:33.425Z,20.90
2022-10-17T21:06:54.904Z,19.77
2022-10-17T21:09:23.047Z,20.23
2022-10-17T21:11:57.357Z,19.80
2022-10-17T21:14:26.256Z,18.85
2022-10-17T21:16:54.085Z,20.05
2022-10-17T21:19:25.253Z,18.27
2022-10-17T21:21:53.148Z,17.45
2022-10-17T21:24:21.891Z,17.20
2022-10-17T21:26:55.624Z,17.30
2022-10-17T21:29:27.009Z,16.90
2022-10-17T21:31:54.784Z,16.00
2022-10-17T21:34:25.111Z,15.43
2022-10-17T21:36:53.644Z,16.20
2022-10-17T21:39:23.321Z,15.30
2022-10-17T21:41:51.807Z,14.40
2022-10-17T21:44:21.867Z,14.10
2022-10-17T21:46:49.524Z,13.02
2022-10-17T21:49:18.342Z,12.98
2022-10-17T21:51:47.559Z,13.02
2022-10-17T21:54:16.498Z,12.73
2022-10-17T21:56:44.910Z,12.57
2022-10-17T21:59:12.403Z,11.18
2022-10-17T22:01:41.420Z,11.52
2022-10-17T22:04:12.751Z,10.70
2022-10-17T22:06:41.384Z,9.30
2022-10-17T22:09:13.955Z,9.55
2022-10-17T22:11:41.736Z,8.50
2022-10-17T22:14:11.928Z,9.68
2022-10-17T22:16:39.926Z,9.70
2022-10-17T22:19:08.746Z,8.60
2022-10-17T22:21:37.692Z,9.55
2022-10-17T22:24:06.945Z,10.25
2022-10-17T22:26:35.946Z,9.27
2022-10-17T22:29:05.040Z,8.60
2022-10-17T22:31:32.779Z,7.78
2022-10-17T22:34:05.377Z,6.18
2022-10-17T22:36:33.954Z,7.03
2022-10-17T22:39:01.801Z,8.48
2022-10-17T22:41:29.122Z,6.95
2022-10-17T22:43:56.687Z,8.23
2022-10-17T22:46:25.159Z,8.90
2022-10-17T22:48:53.378Z,8.70
2022-10-17T22:51:21.574Z,8.50
2022-10-17T22:53:49.545Z,9.57
2022-10-17T22:56:18.067Z,8.82
2022-10-17T22:58:45.856Z,7.03
2022-10-17T23:01:15.661Z,6.45
2022-10-17T23:03:43.727Z,5.40
2022-10-17T23:06:11.421Z,5.18
2022-10-17T23:08:38.975Z,5.88
2022-10-17T23:11:06.930Z,6.10
2022-10-17T23:13:34.874Z,7.88
2022-10-17T23:16:02.582Z,7.80
2022-10-17T23:20:59.009Z,7.00
2022-10-17T23:23:26.803Z,6.15
2022-10-17T23:25:54.456Z,5.20
2022-10-17T23:28:22.864Z,5.85
2022-10-17T23:30:50.490Z,5.35
2022-10-17T23:33:18.184Z,6.72
2022-10-17T23:35:45.723Z,6.30
2022-10-17T23:38:13.339Z,6.10
2022-10-17T23:40:41.000Z,6.47
2022-10-17T23:43:08.835Z,6.60
2022-10-17T23:48:07.670Z,7.70
2022-10-17T23:50:35.339Z,7.43
2022-10-17T23:53:02.750Z,5.78
2022-10-17T23:55:30.317Z,5.68
2022-10-17T23:57:58.014Z,7.07
